sensor_id;sensor_type;location;lat;lon;timestamp;pressure;altitude;pressure_sealevel;temperature;humidity
56038;BME280;41907;47.848;9.000;2023-02-13T00:00:22;97525.59;;;2.61;100.00
56038;BME280;41907;47.848;9.000;2023-02-13T00:02:47;97518.13;;;2.58;100.00
56038;BME280;41907;47.848;9.000;2023-02-13T00:05:12;97519.78;;;2.52;100.00
56038;BME280;41907;47.848;9.000;2023-02-13T00:07:38;97525.88;;;2.46;100.00
56038;BME280;41907;47.848;9.000;2023-02-13T00:10:04;97522.22;;;2.47;100.00
56038;BME280;41907;47.848;9.000;2023-02-13T00:12:29;97520.59;;;2.53;100.00
56038;BME280;41907;47.848;9.000;2023-02-13T00:14:54;97525.50;;;2.43;100.00
56038;BME280;41907;47.848;9.000;2023-02-13T00:17:20;97519.81;;;2.46;100.00
56038;BME280;41907;47.848;9.000;2023-02-13T00:19:45;97525.88;;;2.46;100.00
56038;BME280;41907;47.848;9.000;2023-02-13T00:22:10;97519.81;;;2.46;100.00
56038;BME280;41907;47.848;9.000;2023-02-13T00:24:36;97521.41;;;2.47;100.00
56038;BME280;41907;47.848;9.000;2023-02-13T00:27:01;97522.63;;;2.51;100.00
56038;BME280;41907;47.848;9.000;2023-02-13T00:29:27;97517.97;;;2.53;100.00
56038;BME280;41907;47.848;9.000;2023-02-13T00:31:52;97528.03;;;2.56;100.00
56038;BME280;41907;47.848;9.000;2023-02-13T00:34:18;97521.16;;;2.55;100.00
56038;BME280;41907;47.848;9.000;2023-02-13T00:36:43;97519.72;;;2.59;100.00
56038;BME280;41907;47.848;9.000;2023-02-13T00:39:10;97519.13;;;2.57;100.00
56038;BME280;41907;47.848;9.000;2023-02-13T00:41:36;97522.38;;;2.59;100.00
56038;BME280;41907;47.848;9.000;2023-02-13T00:44:01;97518.50;;;2.61;100.00
56038;BME280;41907;47.848;9.000;2023-02-13T00:46:27;97518.66;;;2.67;100.00
56038;BME280;41907;47.848;9.000;2023-02-13T00:48:52;97524.13;;;2.65;100.00
56038;BME280;41907;47.848;9.000;2023-02-13T00:51:17;97523.56;;;2.63;100.00
56038;BME280;41907;47.848;9.000;2023-02-13T00:53:43;97529.66;;;2.57;100.00
56038;BME280;41907;47.848;9.000;2023-02-13T00:56:08;97536.19;;;2.54;100.00
56038;BME280;41907;47.848;9.000;2023-02-13T00:58:33;97531.69;;;2.55;100.00
56038;BME280;41907;47.848;9.000;2023-02-13T01:00:59;97525.84;;;2.53;100.00
56038;BME280;41907;47.848;9.000;2023-02-13T01:03:24;97527.69;;;2.46;100.00
56038;BME280;41907;47.848;9.000;2023-02-13T01:05:51;97528.50;;;2.53;100.00
56038;BME280;41907;47.848;9.000;2023-02-13T01:08:18;97533.56;;;2.54;100.00
56038;BME280;41907;47.848;9.000;2023-02-13T01:10:45;97532.34;;;2.50;100.00
56038;BME280;41907;47.848;9.000;2023-02-13T01:13:12;97532.16;;;2.52;100.00
56038;BME280;41907;47.848;9.000;2023-02-13T01:15:38;97533.56;;;2.48;100.00
56038;BME280;41907;47.848;9.000;2023-02-13T01:18:04;97538.25;;;2.46;100.00
56038;BME280;41907;47.848;9.000;2023-02-13T01:20:29;97538.25;;;2.46;100.00
56038;BME280;41907;47.848;9.000;2023-02-13T01:22:56;97543.75;;;2.44;100.00
56038;BME280;41907;47.848;9.000;2023-02-13T01:25:21;97535.41;;;2.47;100.00
56038;BME280;41907;47.848;9.000;2023-02-13T01:27:47;97544.56;;;2.38;100.00
56038;BME280;41907;47.848;9.000;2023-02-13T01:30:14;97542.13;;;2.37;100.00
56038;BME280;41907;47.848;9.000;2023-02-13T01:32:40;97546.22;;;2.33;100.00
56038;BME280;41907;47.848;9.000;2023-02-13T01:35:07;97534.94;;;2.26;100.00
56038;BME280;41907;47.848;9.000;2023-02-13T01:37:32;97536.75;;;2.25;100.00
56038;BME280;41907;47.848;9.000;2023-02-13T01:39:58;97543.25;;;2.22;100.00
56038;BME280;41907;47.848;9.000;2023-02-13T01:42:30;97536.16;;;2.23;100.00
56038;BME280;41907;47.848;9.000;2023-02-13T01:44:58;97540.78;;;2.28;100.00
56038;BME280;41907;47.848;9.000;2023-02-13T01:47:44;97542.19;;;2.30;100.00
56038;BME280;41907;47.848;9.000;2023-02-13T01:50:31;97546.03;;;2.28;100.00
56038;BME280;41907;47.848;9.000;2023-02-13T01:53:09;97543.19;;;2.29;100.00
56038;BME280;41907;47.848;9.000;2023-02-13T01:55:52;97547.84;;;2.34;100.00
56038;BME280;41907;47.848;9.000;2023-02-13T01:58:22;97545.22;;;2.34;100.00
56038;BME280;41907;47.848;9.000;2023-02-13T02:00:48;97545.03;;;2.29;100.00
56038;BME280;41907;47.848;9.000;2023-02-13T02:03:24;97544.19;;;2.35;100.00
56038;BME280;41907;47.848;9.000;2023-02-13T02:05:54;97558.97;;;2.36;100.00
56038;BME280;41907;47.848;9.000;2023-02-13T02:08:21;97546.44;;;2.31;100.00
56038;BME280;41907;47.848;9.000;2023-02-13T02:10:47;97553.53;;;2.31;100.00
56038;BME280;41907;47.848;9.000;2023-02-13T02:13:15;97562.63;;;2.28;100.00
56038;BME280;41907;47.848;9.000;2023-02-13T02:15:45;97561.22;;;2.32;100.00
56038;BME280;41907;47.848;9.000;2023-02-13T02:18:21;97566.66;;;2.37;100.00
56038;BME280;41907;47.848;9.000;2023-02-13T02:27:07;97567.94;;;2.21;100.00
56038;BME280;41907;47.848;9.000;2023-02-13T02:32:13;97561.69;;;2.16;100.00
56038;BME280;41907;47.848;9.000;2023-02-13T02:35:06;97560.69;;;2.17;100.00
56038;BME280;41907;47.848;9.000;2023-02-13T02:37:51;97559.06;;;2.16;100.00
56038;BME280;41907;47.848;9.000;2023-02-13T02:40:33;97558.06;;;2.17;100.00
56038;BME280;41907;47.848;9.000;2023-02-13T02:45:49;97555.94;;;2.32;100.00
56038;BME280;41907;47.848;9.000;2023-02-13T02:48:34;97555.56;;;2.29;100.00
56038;BME280;41907;47.848;9.000;2023-02-13T02:56:35;97566.88;;;2.36;100.00
56038;BME280;41907;47.848;9.000;2023-02-13T02:59:06;97564.19;;;2.42;100.00
56038;BME280;41907;47.848;9.000;2023-02-13T03:01:53;97557.38;;;2.35;100.00
56038;BME280;41907;47.848;9.000;2023-02-13T03:04:48;97558.19;;;2.29;100.00
56038;BME280;41907;47.848;9.000;2023-02-13T03:07:33;97560.00;;;2.28;100.00
56038;BME280;41907;47.848;9.000;2023-02-13T03:10:02;97561.41;;;2.31;100.00
56038;BME280;41907;47.848;9.000;2023-02-13T03:12:51;97562.28;;;2.24;100.00
56038;BME280;41907;47.848;9.000;2023-02-13T03:15:41;97566.88;;;2.29;100.00
56038;BME280;41907;47.848;9.000;2023-02-13T03:18:28;97562.69;;;2.21;100.00
56038;BME280;41907;47.848;9.000;2023-02-13T03:21:17;97565.97;;;2.17;100.00
56038;BME280;41907;47.848;9.000;2023-02-13T03:24:27;97568.78;;;2.09;100.00
56038;BME280;41907;47.848;9.000;2023-02-13T03:27:08;97574.66;;;2.11;100.00
56038;BME280;41907;47.848;9.000;2023-02-13T03:29:44;97569.81;;;2.08;100.00
56038;BME280;41907;47.848;9.000;2023-02-13T03:35:52;97579.59;;;1.94;100.00
56038;BME280;41907;47.848;9.000;2023-02-13T03:39:01;97581.59;;;1.99;100.00
56038;BME280;41907;47.848;9.000;2023-02-13T03:41:36;97576.97;;;1.94;100.00
56038;BME280;41907;47.848;9.000;2023-02-13T03:46:40;97577.78;;;1.95;100.00
56038;BME280;41907;47.848;9.000;2023-02-13T03:49:10;97587.50;;;1.94;100.00
56038;BME280;41907;47.848;9.000;2023-02-13T03:52:01;97592.13;;;1.92;100.00
56038;BME280;41907;47.848;9.000;2023-02-13T03:54:35;97589.50;;;1.92;100.00
56038;BME280;41907;47.848;9.000;2023-02-13T03:57:22;97594.00;;;1.85;100.00
56038;BME280;41907;47.848;9.000;2023-02-13T04:00:10;97599.66;;;1.82;100.00
56038;BME280;41907;47.848;9.000;2023-02-13T04:02:41;97605.94;;;1.88;100.00
56038;BME280;41907;47.848;9.000;2023-02-13T04:05:20;97600.03;;;1.92;100.00
56038;BME280;41907;47.848;9.000;2023-02-13T04:07:46;97597.84;;;1.76;100.00
56038;BME280;41907;47.848;9.000;2023-02-13T04:10:14;97599.06;;;1.73;100.00
56038;BME280;41907;47.848;9.000;2023-02-13T04:13:05;97597.03;;;1.75;100.00
56038;BME280;41907;47.848;9.000;2023-02-13T04:15:44;97597.22;;;1.80;100.00
56038;BME280;41907;47.848;9.000;2023-02-13T04:18:16;97600.88;;;1.79;100.00
56038;BME280;41907;47.848;9.000;2023-02-13T04:20:43;97607.38;;;1.77;100.00
56038;BME280;41907;47.848;9.000;2023-02-13T04:23:09;97609.38;;;1.75;100.00
56038;BME280;41907;47.848;9.000;2023-02-13T04:25:38;97604.31;;;1.80;100.00
56038;BME280;41907;47.848;9.000;2023-02-13T04:28:05;97607.16;;;1.72;100.00
56038;BME280;41907;47.848;9.000;2023-02-13T04:30:31;97606.78;;;1.62;100.00
56038;BME280;41907;47.848;9.000;2023-02-13T04:32:56;97611.22;;;1.61;100.00
56038;BME280;41907;47.848;9.000;2023-02-13T04:35:21;97613.88;;;1.55;100.00
56038;BME280;41907;47.848;9.000;2023-02-13T04:37:47;97613.44;;;1.51;100.00
56038;BME280;41907;47.848;9.000;2023-02-13T04:40:15;97617.69;;;1.52;100.00
56038;BME280;41907;47.848;9.000;2023-02-13T04:42:41;97622.78;;;1.47;100.00
56038;BME280;41907;47.848;9.000;2023-02-13T04:45:06;97615.50;;;1.49;100.00
56038;BME280;41907;47.848;9.000;2023-02-13T04:47:32;97622.16;;;1.52;100.00
56038;BME280;41907;47.848;9.000;2023-02-13T04:49:57;97622.53;;;1.62;100.00
56038;BME280;41907;47.848;9.000;2023-02-13T04:52:23;97618.50;;;1.72;100.00
56038;BME280;41907;47.848;9.000;2023-02-13T04:54:48;97618.72;;;1.58;100.00
56038;BME280;41907;47.848;9.000;2023-02-13T04:57:13;97627.22;;;1.60;100.00
56038;BME280;41907;47.848;9.000;2023-02-13T04:59:39;97611.22;;;1.74;100.00
56038;BME280;41907;47.848;9.000;2023-02-13T05:02:05;97610.97;;;1.82;100.00
56038;BME280;41907;47.848;9.000;2023-02-13T05:04:30;97613.63;;;1.82;100.00
56038;BME280;41907;47.848;9.000;2023-02-13T05:06:55;97611.44;;;1.66;100.00
56038;BME280;41907;47.848;9.000;2023-02-13T05:09:21;97614.88;;;1.67;100.00
56038;BME280;41907;47.848;9.000;2023-02-13T05:11:46;97614.88;;;1.60;100.00
56038;BME280;41907;47.848;9.000;2023-02-13T05:14:14;97608.59;;;1.55;100.00
56038;BME280;41907;47.848;9.000;2023-02-13T05:16:40;97614.69;;;1.48;100.00
56038;BME280;41907;47.848;9.000;2023-02-13T05:19:05;97616.72;;;1.40;100.00
56038;BME280;41907;47.848;9.000;2023-02-13T05:21:30;97611.88;;;1.50;100.00
56038;BME280;41907;47.848;9.000;2023-02-13T05:24:14;97616.09;;;1.38;100.00
56038;BME280;41907;47.848;9.000;2023-02-13T05:26:40;97618.53;;;1.39;100.00
56038;BME280;41907;47.848;9.000;2023-02-13T05:29:05;97621.94;;;1.53;100.00
56038;BME280;41907;47.848;9.000;2023-02-13T05:31:43;97619.75;;;1.50;100.00
56038;BME280;41907;47.848;9.000;2023-02-13T05:34:08;97621.34;;;1.44;100.00
56038;BME280;41907;47.848;9.000;2023-02-13T05:36:33;97626.03;;;1.29;100.00
56038;BME280;41907;47.848;9.000;2023-02-13T05:38:59;97625.59;;;1.32;100.00
56038;BME280;41907;47.848;9.000;2023-02-13T05:41:24;97628.84;;;1.41;100.00
56038;BME280;41907;47.848;9.000;2023-02-13T05:43:50;97626.22;;;1.41;100.00
56038;BME280;41907;47.848;9.000;2023-02-13T05:46:15;97635.13;;;1.40;100.00
56038;BME280;41907;47.848;9.000;2023-02-13T05:48:40;97634.31;;;1.39;100.00
56038;BME280;41907;47.848;9.000;2023-02-13T05:51:06;97633.31;;;1.40;100.00
56038;BME280;41907;47.848;9.000;2023-02-13T05:53:31;97630.69;;;1.40;100.00
56038;BME280;41907;47.848;9.000;2023-02-13T05:56:00;97634.72;;;1.49;100.00
56038;BME280;41907;47.848;9.000;2023-02-13T05:58:25;97631.47;;;1.47;100.00
56038;BME280;41907;47.848;9.000;2023-02-13T06:00:55;97637.34;;;1.56;100.00
56038;BME280;41907;47.848;9.000;2023-02-13T06:03:21;97631.47;;;1.54;100.00
56038;BME280;41907;47.848;9.000;2023-02-13T06:05:47;97625.59;;;1.52;100.00
56038;BME280;41907;47.848;9.000;2023-02-13T06:08:12;97632.91;;;1.50;100.00
56038;BME280;41907;47.848;9.000;2023-02-13T06:10:37;97633.28;;;1.47;100.00
56038;BME280;41907;47.848;9.000;2023-02-13T06:13:03;97629.03;;;1.46;100.00
56038;BME280;41907;47.848;9.000;2023-02-13T06:15:28;97621.97;;;1.60;100.00
56038;BME280;41907;47.848;9.000;2023-02-13T06:17:54;97618.09;;;1.69;100.00
56038;BME280;41907;47.848;9.000;2023-02-13T06:20:19;97618.94;;;1.49;100.00
56038;BME280;41907;47.848;9.000;2023-02-13T06:22:48;97625.59;;;1.45;100.00
56038;BME280;41907;47.848;9.000;2023-02-13T06:25:13;97627.81;;;1.42;100.00
56038;BME280;41907;47.848;9.000;2023-02-13T06:27:39;97632.88;;;1.43;100.00
56038;BME280;41907;47.848;9.000;2023-02-13T06:30:04;97630.44;;;1.42;100.00
56038;BME280;41907;47.848;9.000;2023-02-13T06:32:30;97628.84;;;1.41;100.00
56038;BME280;41907;47.848;9.000;2023-02-13T06:34:55;97628.84;;;1.41;100.00
56038;BME280;41907;47.848;9.000;2023-02-13T06:37:21;97630.47;;;1.35;100.00
56038;BME280;41907;47.848;9.000;2023-02-13T06:39:46;97634.31;;;1.39;100.00
56038;BME280;41907;47.848;9.000;2023-02-13T06:42:11;97629.25;;;1.38;100.00
56038;BME280;41907;47.848;9.000;2023-02-13T06:44:37;97638.94;;;1.24;100.00
56038;BME280;41907;47.848;9.000;2023-02-13T06:47:02;97639.56;;;1.26;100.00
56038;BME280;41907;47.848;9.000;2023-02-13T06:49:27;97639.75;;;1.11;100.00
56038;BME280;41907;47.848;9.000;2023-02-13T06:51:52;97634.31;;;1.13;100.00
56038;BME280;41907;47.848;9.000;2023-02-13T06:54:18;97638.34;;;1.22;100.00
56038;BME280;41907;47.848;9.000;2023-02-13T06:56:43;97646.03;;;1.17;100.00
56038;BME280;41907;47.848;9.000;2023-02-13T06:59:08;97639.38;;;1.21;100.00
56038;BME280;41907;47.848;9.000;2023-02-13T07:01:34;97651.72;;;1.40;100.00
56038;BME280;41907;47.848;9.000;2023-02-13T07:03:59;97651.47;;;1.42;100.00
56038;BME280;41907;47.848;9.000;2023-02-13T07:06:25;97653.91;;;1.43;100.00
56038;BME280;41907;47.848;9.000;2023-02-13T07:08:50;97650.28;;;1.38;100.00
56038;BME280;41907;47.848;9.000;2023-02-13T07:11:20;97656.75;;;1.42;100.00
56038;BME280;41907;47.848;9.000;2023-02-13T07:13:45;97658.97;;;1.58;100.00
56038;BME280;41907;47.848;9.000;2023-02-13T07:16:11;97663.00;;;1.61;100.00
56038;BME280;41907;47.848;9.000;2023-02-13T07:18:36;97662.81;;;1.62;100.00
56038;BME280;41907;47.848;9.000;2023-02-13T07:21:02;97663.00;;;1.74;100.00
56038;BME280;41907;47.848;9.000;2023-02-13T07:23:27;97659.38;;;1.75;100.00
56038;BME280;41907;47.848;9.000;2023-02-13T07:25:53;97665.41;;;1.82;100.00
56038;BME280;41907;47.848;9.000;2023-02-13T07:28:18;97664.59;;;1.95;100.00
56038;BME280;41907;47.848;9.000;2023-02-13T07:30:43;97670.06;;;1.93;100.00
56038;BME280;41907;47.848;9.000;2023-02-13T07:33:08;97670.25;;;1.98;100.00
56038;BME280;41907;47.848;9.000;2023-02-13T07:35:34;97676.50;;;2.10;100.00
56038;BME280;41907;47.848;9.000;2023-02-13T07:38:02;97674.69;;;2.11;100.00
56038;BME280;41907;47.848;9.000;2023-02-13T07:40:27;97677.94;;;2.06;100.00
56038;BME280;41907;47.848;9.000;2023-02-13T07:42:53;97680.19;;;1.96;100.00
56038;BME280;41907;47.848;9.000;2023-02-13T07:45:18;97682.22;;;1.94;100.00
56038;BME280;41907;47.848;9.000;2023-02-13T07:47:44;97678.59;;;1.75;100.00
56038;BME280;41907;47.848;9.000;2023-02-13T07:50:09;97679.41;;;1.76;100.00
56038;BME280;41907;47.848;9.000;2023-02-13T07:52:35;97681.63;;;1.66;100.00
56038;BME280;41907;47.848;9.000;2023-02-13T07:55:02;97679.00;;;1.66;100.00
56038;BME280;41907;47.848;9.000;2023-02-13T07:57:27;97673.34;;;1.69;100.00
56038;BME280;41907;47.848;9.000;2023-02-13T07:59:53;97683.25;;;1.67;100.00
56038;BME280;41907;47.848;9.000;2023-02-13T08:02:18;97678.78;;;1.61;100.00
56038;BME280;41907;47.848;9.000;2023-02-13T08:04:43;97676.38;;;1.59;100.00
56038;BME280;41907;47.848;9.000;2023-02-13T08:07:15;97678.38;;;1.70;100.00
56038;BME280;41907;47.848;9.000;2023-02-13T08:09:43;97680.63;;;1.54;100.00
56038;BME280;41907;47.848;9.000;2023-02-13T08:12:28;97686.91;;;1.39;100.00
56038;BME280;41907;47.848;9.000;2023-02-13T08:14:54;97683.25;;;1.47;100.00
56038;BME280;41907;47.848;9.000;2023-02-13T08:17:19;97692.16;;;1.39;100.00
56038;BME280;41907;47.848;9.000;2023-02-13T08:19:45;97704.25;;;1.27;100.00
56038;BME280;41907;47.848;9.000;2023-02-13T08:22:10;97693.94;;;1.26;100.00
56038;BME280;41907;47.848;9.000;2023-02-13T08:24:35;97688.50;;;1.27;100.00
56038;BME280;41907;47.848;9.000;2023-02-13T08:27:01;97700.63;;;1.28;100.00
56038;BME280;41907;47.848;9.000;2023-02-13T08:29:26;97701.63;;;1.27;100.00
56038;BME280;41907;47.848;9.000;2023-02-13T08:31:51;97692.50;;;1.23;100.00
56038;BME280;41907;47.848;9.000;2023-02-13T08:34:17;97695.94;;;1.24;100.00
56038;BME280;41907;47.848;9.000;2023-02-13T08:36:42;97700.63;;;1.28;100.00
56038;BME280;41907;47.848;9.000;2023-02-13T08:39:08;97697.81;;;1.49;100.00
56038;BME280;41907;47.848;9.000;2023-02-13T08:41:34;97695.38;;;1.55;100.00
56038;BME280;41907;47.848;9.000;2023-02-13T08:43:59;97694.38;;;1.56;100.00
56038;BME280;41907;47.848;9.000;2023-02-13T08:46:25;97698.41;;;1.65;100.00
56038;BME280;41907;47.848;9.000;2023-02-13T08:48:50;97697.19;;;1.74;100.00
56038;BME280;41907;47.848;9.000;2023-02-13T08:51:16;97698.00;;;1.74;100.00
56038;BME280;41907;47.848;9.000;2023-02-13T08:53:41;97696.78;;;1.90;100.00
56038;BME280;41907;47.848;9.000;2023-02-13T08:56:07;97699.63;;;1.82;100.00
56038;BME280;41907;47.848;9.000;2023-02-13T08:58:32;97700.44;;;1.82;100.00
56038;BME280;41907;47.848;9.000;2023-02-13T09:00:58;97690.50;;;1.91;100.00
56038;BME280;41907;47.848;9.000;2023-02-13T09:03:23;97696.56;;;1.92;100.00
56038;BME280;41907;47.848;9.000;2023-02-13T09:05:49;97695.97;;;1.90;100.00
56038;BME280;41907;47.848;9.000;2023-02-13T09:08:14;97697.38;;;1.99;100.00
56038;BME280;41907;47.848;9.000;2023-02-13T09:10:41;97691.09;;;2.00;100.00
56038;BME280;41907;47.848;9.000;2023-02-13T09:13:08;97692.13;;;2.05;100.00
56038;BME280;41907;47.848;9.000;2023-02-13T09:15:37;97683.00;;;2.01;100.00
56038;BME280;41907;47.848;9.000;2023-02-13T09:18:03;97690.63;;;2.29;100.00
56038;BME280;41907;47.848;9.000;2023-02-13T09:20:28;97693.81;;;2.51;100.00
56038;BME280;41907;47.848;9.000;2023-02-13T09:22:54;97690.69;;;2.67;100.00
56038;BME280;41907;47.848;9.000;2023-02-13T09:25:20;97691.22;;;2.44;100.00
56038;BME280;41907;47.848;9.000;2023-02-13T09:27:46;97686.72;;;2.51;100.00
56038;BME280;41907;47.848;9.000;2023-02-13T09:30:12;97686.31;;;2.54;100.00
56038;BME280;41907;47.848;9.000;2023-02-13T09:32:46;97692.13;;;2.70;100.00
56038;BME280;41907;47.848;9.000;2023-02-13T09:35:12;97688.38;;;2.84;100.00
56038;BME280;41907;47.848;9.000;2023-02-13T09:37:39;97683.13;;;2.84;100.00
56038;BME280;41907;47.848;9.000;2023-02-13T09:40:06;97685.13;;;2.88;100.00
56038;BME280;41907;47.848;9.000;2023-02-13T09:42:35;97691.72;;;3.04;100.00
56038;BME280;41907;47.848;9.000;2023-02-13T09:45:03;97682.44;;;3.02;100.00
56038;BME280;41907;47.848;9.000;2023-02-13T09:47:31;97699.47;;;2.99;100.00
56038;BME280;41907;47.848;9.000;2023-02-13T09:50:18;97701.13;;;2.93;100.00
56038;BME280;41907;47.848;9.000;2023-02-13T09:52:48;97698.13;;;2.83;100.00
56038;BME280;41907;47.848;9.000;2023-02-13T09:57:45;97685.63;;;2.66;100.00
56038;BME280;41907;47.848;9.000;2023-02-13T10:00:23;97684.56;;;2.80;100.00
56038;BME280;41907;47.848;9.000;2023-02-13T10:05:42;97689.09;;;3.04;100.00
56038;BME280;41907;47.848;9.000;2023-02-13T10:08:21;97685.72;;;3.28;100.00
56038;BME280;41907;47.848;9.000;2023-02-13T10:11:03;97689.25;;;3.41;100.00
56038;BME280;41907;47.848;9.000;2023-02-13T10:16:12;97682.72;;;3.50;100.00
56038;BME280;41907;47.848;9.000;2023-02-13T10:21:10;97695.81;;;3.31;100.00
56038;BME280;41907;47.848;9.000;2023-02-13T10:23:48;97688.97;;;3.24;100.00
56038;BME280;41907;47.848;9.000;2023-02-13T10:26:19;97682.56;;;3.45;100.00
56038;BME280;41907;47.848;9.000;2023-02-13T10:29:05;97675.28;;;3.40;100.00
56038;BME280;41907;47.848;9.000;2023-02-13T10:31:53;97689.25;;;3.47;100.00
56038;BME280;41907;47.848;9.000;2023-02-13T10:34:24;97680.78;;;3.63;100.00
56038;BME280;41907;47.848;9.000;2023-02-13T10:36:50;97674.06;;;3.67;100.00
56038;BME280;41907;47.848;9.000;2023-02-13T10:39:27;97673.75;;;3.57;100.00
56038;BME280;41907;47.848;9.000;2023-02-13T10:47:46;97667.16;;;3.66;100.00
56038;BME280;41907;47.848;9.000;2023-02-13T10:53:26;97660.94;;;4.04;100.00
56038;BME280;41907;47.848;9.000;2023-02-13T11:01:36;97660.72;;;4.24;100.00
56038;BME280;41907;47.848;9.000;2023-02-13T11:04:10;97652.94;;;4.10;100.00
56038;BME280;41907;47.848;9.000;2023-02-13T11:06:40;97652.47;;;3.77;100.00
56038;BME280;41907;47.848;9.000;2023-02-13T11:09:07;97655.94;;;3.71;100.00
56038;BME280;41907;47.848;9.000;2023-02-13T11:11:37;97659.56;;;3.27;100.00
56038;BME280;41907;47.848;9.000;2023-02-13T11:19:34;97652.47;;;3.52;100.00
56038;BME280;41907;47.848;9.000;2023-02-13T11:22:11;97647.41;;;3.51;100.00
56038;BME280;41907;47.848;9.000;2023-02-13T11:24:40;97648.75;;;3.35;100.00
56038;BME280;41907;47.848;9.000;2023-02-13T11:27:09;97643.16;;;3.74;100.00
56038;BME280;41907;47.848;9.000;2023-02-13T11:29:54;97648.41;;;3.74;100.00
56038;BME280;41907;47.848;9.000;2023-02-13T11:32:29;97644.97;;;3.74;100.00
56038;BME280;41907;47.848;9.000;2023-02-13T11:34:55;97642.75;;;3.96;100.00
56038;BME280;41907;47.848;9.000;2023-02-13T11:37:28;97644.72;;;4.19;100.00
56038;BME280;41907;47.848;9.000;2023-02-13T11:39:58;97638.41;;;4.38;100.00
56038;BME280;41907;47.848;9.000;2023-02-13T11:44:56;97632.72;;;4.71;100.00
56038;BME280;41907;47.848;9.000;2023-02-13T11:47:40;97633.66;;;4.76;100.00
56038;BME280;41907;47.848;9.000;2023-02-13T11:50:32;97633.59;;;4.65;100.00
56038;BME280;41907;47.848;9.000;2023-02-13T11:53:19;97632.63;;;4.77;100.00
56038;BME280;41907;47.848;9.000;2023-02-13T11:58:31;97633.84;;;4.93;100.00
56038;BME280;41907;47.848;9.000;2023-02-13T12:04:05;97633.50;;;4.90;100.00
56038;BME280;41907;47.848;9.000;2023-02-13T12:06:32;97627.38;;;4.59;100.00
56038;BME280;41907;47.848;9.000;2023-02-13T12:09:09;97624.56;;;4.72;100.00
56038;BME280;41907;47.848;9.000;2023-02-13T12:11:53;97624.91;;;4.76;100.00
56038;BME280;41907;47.848;9.000;2023-02-13T12:14:22;97625.34;;;4.61;100.00
56038;BME280;41907;47.848;9.000;2023-02-13T12:16:53;97619.78;;;4.63;100.00
56038;BME280;41907;47.848;9.000;2023-02-13T12:19:23;97630.09;;;4.82;100.00
56038;BME280;41907;47.848;9.000;2023-02-13T12:22:03;97612.03;;;4.98;100.00
56038;BME280;41907;47.848;9.000;2023-02-13T12:27:44;97618.41;;;5.32;100.00
56038;BME280;41907;47.848;9.000;2023-02-13T12:35:27;97609.97;;;5.11;100.00
56038;BME280;41907;47.848;9.000;2023-02-13T12:46:21;97604.50;;;5.36;100.00
56038;BME280;41907;47.848;9.000;2023-02-13T12:49:26;97599.00;;;5.38;100.00
56038;BME280;41907;47.848;9.000;2023-02-13T12:52:18;97598.38;;;5.24;100.00
56038;BME280;41907;47.848;9.000;2023-02-13T12:57:49;97594.00;;;5.06;100.00
56038;BME280;41907;47.848;9.000;2023-02-13T13:06:12;97587.81;;;5.24;100.00
56038;BME280;41907;47.848;9.000;2023-02-13T13:14:34;97593.84;;;5.01;100.00
56038;BME280;41907;47.848;9.000;2023-02-13T13:25:07;97587.41;;;4.97;100.00
56038;BME280;41907;47.848;9.000;2023-02-13T13:27:34;97586.81;;;4.95;100.00
56038;BME280;41907;47.848;9.000;2023-02-13T13:30:12;97579.44;;;4.85;100.00
56038;BME280;41907;47.848;9.000;2023-02-13T13:32:38;97582.19;;;4.79;100.00
56038;BME280;41907;47.848;9.000;2023-02-13T13:35:12;97580.47;;;4.84;100.00
56038;BME280;41907;47.848;9.000;2023-02-13T13:37:50;97586.06;;;5.06;100.00
56038;BME280;41907;47.848;9.000;2023-02-13T13:50:58;97594.25;;;5.40;100.00
56038;BME280;41907;47.848;9.000;2023-02-13T13:53:24;97583.22;;;5.43;100.00
56038;BME280;41907;47.848;9.000;2023-02-13T14:01:16;97577.59;;;5.74;100.00
56038;BME280;41907;47.848;9.000;2023-02-13T14:03:52;97581.84;;;5.64;100.00
56038;BME280;41907;47.848;9.000;2023-02-13T14:06:24;97569.06;;;5.60;100.00
56038;BME280;41907;47.848;9.000;2023-02-13T14:08:56;97581.16;;;5.33;100.00
56038;BME280;41907;47.848;9.000;2023-02-13T14:13:50;97582.41;;;5.42;100.00
56038;BME280;41907;47.848;9.000;2023-02-13T14:21:48;97576.44;;;5.35;100.00
56038;BME280;41907;47.848;9.000;2023-02-13T14:24:13;97580.47;;;5.49;100.00
56038;BME280;41907;47.848;9.000;2023-02-13T14:26:49;97573.09;;;5.63;100.00
56038;BME280;41907;47.848;9.000;2023-02-13T14:29:21;97580.13;;;5.81;100.00
56038;BME280;41907;47.848;9.000;2023-02-13T14:34:29;97584.28;;;6.00;98.66
56038;BME280;41907;47.848;9.000;2023-02-13T14:39:41;97587.38;;;6.09;98.00
56038;BME280;41907;47.848;9.000;2023-02-13T14:45:02;97589.56;;;6.12;96.56
56038;BME280;41907;47.848;9.000;2023-02-13T14:47:39;97585.28;;;5.76;97.76
56038;BME280;41907;47.848;9.000;2023-02-13T14:50:15;97580.94;;;5.46;98.40
56038;BME280;41907;47.848;9.000;2023-02-13T14:52:44;97583.19;;;5.19;100.00
56038;BME280;41907;47.848;9.000;2023-02-13T14:55:27;97573.16;;;5.10;100.00
56038;BME280;41907;47.848;9.000;2023-02-13T14:58:06;97576.16;;;5.13;100.00
56038;BME280;41907;47.848;9.000;2023-02-13T15:00:36;97574.63;;;4.94;100.00
56038;BME280;41907;47.848;9.000;2023-02-13T15:03:19;97580.19;;;5.04;100.00
56038;BME280;41907;47.848;9.000;2023-02-13T15:05:50;97574.44;;;5.07;100.00
56038;BME280;41907;47.848;9.000;2023-02-13T15:08:20;97573.97;;;4.99;100.00
56038;BME280;41907;47.848;9.000;2023-02-13T15:10:52;97569.00;;;4.91;100.00
56038;BME280;41907;47.848;9.000;2023-02-13T15:15:54;97574.19;;;4.97;100.00
56038;BME280;41907;47.848;9.000;2023-02-13T15:18:31;97565.09;;;4.93;100.00
56038;BME280;41907;47.848;9.000;2023-02-13T15:21:00;97563.13;;;4.89;100.00
56038;BME280;41907;47.848;9.000;2023-02-13T15:23:28;97561.75;;;4.86;100.00
56038;BME280;41907;47.848;9.000;2023-02-13T15:26:02;97562.41;;;4.81;100.00
56038;BME280;41907;47.848;9.000;2023-02-13T15:28:32;97566.09;;;4.80;100.00
56038;BME280;41907;47.848;9.000;2023-02-13T15:31:16;97566.38;;;4.61;100.00